sensor_id;sensor_type;location;lat;lon;timestamp;P1;durP1;ratioP1;P2;durP2;ratioP2
58152;SDS011;43967;51.634;5.566;2023-02-11T13:11:57;11.15;;;4.28;;
58152;SDS011;43967;51.634;5.566;2023-02-11T13:17:43;13.23;;;4.03;;
58152;SDS011;43967;51.634;5.566;2023-02-11T13:41:34;11.55;;;3.92;;
58152;SDS011;43967;51.634;5.566;2023-02-11T13:47:31;17.02;;;3.85;;
58152;SDS011;43967;51.634;5.566;2023-02-11T13:53:11;9.23;;;4.17;;
58152;SDS011;43967;51.634;5.566;2023-02-11T13:58:50;9.30;;;4.23;;
58152;SDS011;43967;51.634;5.566;2023-02-11T14:04:28;8.98;;;4.35;;
58152;SDS011;43967;51.634;5.566;2023-02-11T14:10:47;11.13;;;4.55;;
58152;SDS011;43967;51.634;5.566;2023-02-11T14:16:20;10.17;;;4.47;;
58152;SDS011;43967;51.634;5.566;2023-02-11T14:28:10;9.23;;;4.30;;
58152;SDS011;43967;51.634;5.566;2023-02-11T14:34:07;10.43;;;4.40;;
58152;SDS011;43967;51.634;5.566;2023-02-11T14:45:48;7.82;;;3.97;;
58152;SDS011;43967;51.634;5.566;2023-02-11T14:51:31;9.00;;;3.57;;
58152;SDS011;43967;51.634;5.566;2023-02-11T14:57:15;11.00;;;3.87;;
58152;SDS011;43967;51.634;5.566;2023-02-11T15:02:54;10.25;;;3.75;;
58152;SDS011;43967;51.634;5.566;2023-02-11T15:08:33;8.45;;;3.30;;
58152;SDS011;43967;51.634;5.566;2023-02-11T15:14:22;7.23;;;2.93;;
58152;SDS011;43967;51.634;5.566;2023-02-11T15:20:02;9.48;;;3.55;;
58152;SDS011;43967;51.634;5.566;2023-02-11T15:25:42;9.23;;;3.50;;
58152;SDS011;43967;51.634;5.566;2023-02-11T15:31:22;11.10;;;3.57;;
58152;SDS011;43967;51.634;5.566;2023-02-11T15:37:02;9.23;;;3.88;;
58152;SDS011;43967;51.634;5.566;2023-02-11T15:42:51;8.98;;;3.30;;
58152;SDS011;43967;51.634;5.566;2023-02-11T15:48:51;8.87;;;3.70;;
58152;SDS011;43967;51.634;5.566;2023-02-11T15:54:31;8.17;;;3.40;;
58152;SDS011;43967;51.634;5.566;2023-02-11T16:00:14;9.52;;;3.63;;
58152;SDS011;43967;51.634;5.566;2023-02-11T16:05:54;8.10;;;3.78;;
58152;SDS011;43967;51.634;5.566;2023-02-11T16:11:33;8.47;;;3.30;;
58152;SDS011;43967;51.634;5.566;2023-02-11T16:17:23;8.07;;;3.72;;
58152;SDS011;43967;51.634;5.566;2023-02-11T16:23:04;8.73;;;3.55;;
58152;SDS011;43967;51.634;5.566;2023-02-11T16:28:44;8.97;;;3.93;;
58152;SDS011;43967;51.634;5.566;2023-02-11T16:34:22;9.23;;;3.55;;
58152;SDS011;43967;51.634;5.566;2023-02-11T16:40:02;10.00;;;4.03;;
58152;SDS011;43967;51.634;5.566;2023-02-11T16:45:40;8.13;;;3.83;;
58152;SDS011;43967;51.634;5.566;2023-02-11T16:51:18;12.97;;;3.97;;
58152;SDS011;43967;51.634;5.566;2023-02-11T16:56:57;9.30;;;4.07;;
58152;SDS011;43967;51.634;5.566;2023-02-11T17:02:36;8.43;;;4.00;;
58152;SDS011;43967;51.634;5.566;2023-02-11T17:08:15;8.73;;;3.53;;
58152;SDS011;43967;51.634;5.566;2023-02-11T17:13:54;10.50;;;4.70;;
58152;SDS011;43967;51.634;5.566;2023-02-11T17:19:32;10.02;;;4.47;;
58152;SDS011;43967;51.634;5.566;2023-02-11T17:25:10;10.93;;;5.73;;
58152;SDS011;43967;51.634;5.566;2023-02-11T17:30:48;10.55;;;5.82;;
58152;SDS011;43967;51.634;5.566;2023-02-11T17:36:27;11.18;;;6.10;;
58152;SDS011;43967;51.634;5.566;2023-02-11T17:42:05;13.63;;;6.43;;
58152;SDS011;43967;51.634;5.566;2023-02-11T17:47:44;10.80;;;5.90;;
58152;SDS011;43967;51.634;5.566;2023-02-11T17:53:22;10.25;;;5.28;;
58152;SDS011;43967;51.634;5.566;2023-02-11T17:59:01;13.63;;;5.60;;
58152;SDS011;43967;51.634;5.566;2023-02-11T18:04:40;10.60;;;4.60;;
58152;SDS011;43967;51.634;5.566;2023-02-11T18:10:18;11.15;;;5.20;;
58152;SDS011;43967;51.634;5.566;2023-02-11T18:16:06;10.82;;;4.90;;
58152;SDS011;43967;51.634;5.566;2023-02-11T18:21:44;10.97;;;4.77;;
58152;SDS011;43967;51.634;5.566;2023-02-11T18:27:22;10.75;;;4.70;;
58152;SDS011;43967;51.634;5.566;2023-02-11T18:33:01;10.55;;;4.32;;
58152;SDS011;43967;51.634;5.566;2023-02-11T18:38:39;9.67;;;4.30;;
58152;SDS011;43967;51.634;5.566;2023-02-11T18:44:18;10.23;;;3.90;;
58152;SDS011;43967;51.634;5.566;2023-02-11T18:49:57;10.50;;;4.78;;
58152;SDS011;43967;51.634;5.566;2023-02-11T18:55:39;10.00;;;4.90;;
58152;SDS011;43967;51.634;5.566;2023-02-11T19:01:20;9.83;;;4.67;;
58152;SDS011;43967;51.634;5.566;2023-02-11T19:07:00;9.85;;;4.45;;
58152;SDS011;43967;51.634;5.566;2023-02-11T19:12:38;11.07;;;4.55;;
58152;SDS011;43967;51.634;5.566;2023-02-11T19:18:16;9.93;;;4.30;;
58152;SDS011;43967;51.634;5.566;2023-02-11T19:23:54;10.20;;;4.45;;
58152;SDS011;43967;51.634;5.566;2023-02-11T19:29:36;8.95;;;4.40;;
58152;SDS011;43967;51.634;5.566;2023-02-11T19:35:14;9.50;;;4.30;;
58152;SDS011;43967;51.634;5.566;2023-02-11T19:40:56;9.97;;;4.63;;
58152;SDS011;43967;51.634;5.566;2023-02-11T19:46:35;9.93;;;4.80;;
58152;SDS011;43967;51.634;5.566;2023-02-11T19:52:14;10.38;;;4.68;;
58152;SDS011;43967;51.634;5.566;2023-02-11T19:57:53;10.37;;;4.47;;
58152;SDS011;43967;51.634;5.566;2023-02-11T20:03:31;10.02;;;5.07;;
58152;SDS011;43967;51.634;5.566;2023-02-11T20:09:11;10.80;;;4.68;;
58152;SDS011;43967;51.634;5.566;2023-02-11T20:14:50;11.43;;;4.87;;
58152;SDS011;43967;51.634;5.566;2023-02-11T20:20:28;9.43;;;4.30;;
58152;SDS011;43967;51.634;5.566;2023-02-11T20:26:07;10.80;;;4.70;;
58152;SDS011;43967;51.634;5.566;2023-02-11T20:31:49;11.33;;;5.50;;
58152;SDS011;43967;51.634;5.566;2023-02-11T20:37:27;10.80;;;5.57;;
58152;SDS011;43967;51.634;5.566;2023-02-11T20:43:05;12.82;;;6.15;;
58152;SDS011;43967;51.634;5.566;2023-02-11T20:48:43;9.77;;;4.78;;
58152;SDS011;43967;51.634;5.566;2023-02-11T20:54:22;11.67;;;5.13;;
58152;SDS011;43967;51.634;5.566;2023-02-11T21:00:01;9.70;;;4.90;;
58152;SDS011;43967;51.634;5.566;2023-02-11T21:05:40;10.63;;;5.15;;
58152;SDS011;43967;51.634;5.566;2023-02-11T21:11:19;10.23;;;4.67;;
58152;SDS011;43967;51.634;5.566;2023-02-11T21:16:57;10.68;;;5.10;;
58152;SDS011;43967;51.634;5.566;2023-02-11T21:22:35;9.35;;;4.50;;
58152;SDS011;43967;51.634;5.566;2023-02-11T21:28:14;11.17;;;5.13;;
58152;SDS011;43967;51.634;5.566;2023-02-11T21:33:52;10.83;;;4.93;;
58152;SDS011;43967;51.634;5.566;2023-02-11T21:39:31;11.73;;;4.97;;
58152;SDS011;43967;51.634;5.566;2023-02-11T21:45:09;10.52;;;5.43;;
58152;SDS011;43967;51.634;5.566;2023-02-11T21:50:47;11.40;;;4.57;;
58152;SDS011;43967;51.634;5.566;2023-02-11T21:56:26;9.60;;;5.05;;
58152;SDS011;43967;51.634;5.566;2023-02-11T22:02:07;10.65;;;4.85;;
58152;SDS011;43967;51.634;5.566;2023-02-11T22:07:46;10.27;;;5.27;;
58152;SDS011;43967;51.634;5.566;2023-02-11T22:13:24;9.50;;;4.35;;
58152;SDS011;43967;51.634;5.566;2023-02-11T22:19:03;10.18;;;4.90;;
58152;SDS011;43967;51.634;5.566;2023-02-11T22:24:41;10.20;;;5.07;;
58152;SDS011;43967;51.634;5.566;2023-02-11T22:30:19;9.40;;;4.60;;
58152;SDS011;43967;51.634;5.566;2023-02-11T22:36:05;11.57;;;5.10;;
58152;SDS011;43967;51.634;5.566;2023-02-11T22:41:47;11.38;;;5.35;;
58152;SDS011;43967;51.634;5.566;2023-02-11T22:47:26;11.00;;;5.00;;
58152;SDS011;43967;51.634;5.566;2023-02-11T22:53:04;9.73;;;5.05;;
58152;SDS011;43967;51.634;5.566;2023-02-11T22:58:42;9.35;;;4.50;;
58152;SDS011;43967;51.634;5.566;2023-02-11T23:04:21;11.07;;;4.97;;
58152;SDS011;43967;51.634;5.566;2023-02-11T23:09:59;9.77;;;4.57;;
58152;SDS011;43967;51.634;5.566;2023-02-11T23:15:41;9.45;;;4.60;;
58152;SDS011;43967;51.634;5.566;2023-02-11T23:21:22;9.13;;;4.30;;
58152;SDS011;43967;51.634;5.566;2023-02-11T23:27:02;9.90;;;4.10;;
58152;SDS011;43967;51.634;5.566;2023-02-11T23:32:40;9.93;;;4.45;;
58152;SDS011;43967;51.634;5.566;2023-02-11T23:38:19;9.90;;;4.40;;
58152;SDS011;43967;51.634;5.566;2023-02-11T23:43:57;10.33;;;4.23;;
58152;SDS011;43967;51.634;5.566;2023-02-11T23:49:35;8.23;;;4.30;;
58152;SDS011;43967;51.634;5.566;2023-02-11T23:55:15;10.82;;;4.47;;
